Flight Track Log - Related Links

Times and Time Zones

All times are in EDT time to prevent confusion due to time zone crossing. See the N789EX flight status page for this flight to view local times or setup timezone preferences in your user account.

Time Position Orientation Groundspeed Altitude Reporting Facility
EDT Latitude Longitude Course Direction KTS MPH feet Rate Location/Type
Mon 05:18:54 PM 47.2397 -119.3511 295° West 186 214 4,000  Level Seattle Center
Mon 05:19:55 PM 47.2708 -119.4539 294° West 258 297 8,100 1,694 Climbing Seattle Center
Mon 05:24:00 PM 47.4124 -119.9110 295° West  Level FlightAware Approximate
Mon 05:25:52 PM 47.5521 -120.2770 297° West 409 471 15,800  Level FlightAware ADS-B
Mon 05:26:55 PM 47.6043 -120.4330 296° West 410 472 15,800  Level FlightAware ADS-B
Mon 05:27:25 PM 47.6284 -120.5050 296° West 411 473 15,800  Level FlightAware ADS-B
Mon 05:28:04 PM 47.6631 -120.6100 296° West 412 474 15,800  Level FlightAware ADS-B
Mon 05:28:38 PM 47.6898 -120.6900 296° West 415 478 15,800  Level FlightAware ADS-B
Mon 05:29:09 PM 47.7183 -120.7760 296° West 415 478 15,800  Level FlightAware ADS-B
Mon 05:29:42 PM 47.7438 -120.8540 296° West 416 479 15,800 -91 Level FlightAware ADS-B
Mon 05:30:15 PM 47.7713 -120.9380 296° West 411 473 15,700 -627 Descending FlightAware ADS-B
Mon 05:30:49 PM 47.7983 -121.0210 296° West 401 461 15,100 -1,125 Descending FlightAware ADS-B
Mon 05:31:19 PM 47.8224 -121.0950 296° West 396 456 14,500 -1,200 Descending FlightAware ADS-B
Mon 05:31:44 PM 47.8422 -121.1590 292° West 391 450 14,000 -1,071 Descending FlightAware ADS-B
Mon 05:32:15 PM 47.8563 -121.2350 280° West 383 441 13,500 -1,219 Descending FlightAware ADS-B
Mon 05:32:48 PM 47.8626 -121.3220 275° West 382 440 12,700 -1,343 Descending FlightAware ADS-B
Mon 05:33:22 PM 47.8682 -121.4100 275° West 376 433 12,000 -923 Descending FlightAware ADS-B
Mon 05:33:53 PM 47.8735 -121.4920 275° West 337 388 11,700 -476 Descending FlightAware ADS-B
Mon 05:34:25 PM 47.8776 -121.5590 275° West 308 354 11,500 -476 Descending FlightAware ADS-B
Mon 05:34:56 PM 47.8817 -121.6250 275° West 281 323 11,200 -558 Descending FlightAware ADS-B
Mon 05:35:08 PM 47.8829 -121.6457 275° West 278 320 11,100 -522 Descending FlightAware ADS-B (CYVR)
Mon 05:35:19 PM 47.8842 -121.6680 274° West 278 320 11,000 -400 Descending FlightAware ADS-B
Mon 05:35:23 PM 47.8844 -121.6760 271° West 277 319 11,000  Level FlightAware ADS-B
Mon 05:35:26 PM 47.8841 -121.6820 266° West 276 318 11,000 -750 Level FlightAware ADS-B
Mon 05:35:31 PM 47.8829 -121.6920 257° West 273 314 10,900 -667 Descending FlightAware ADS-B
Mon 05:35:35 PM 47.8833 -121.6901 252° West 272 313 10,900  Level FlightAware ADS-B (CYVR)
Mon 05:35:38 PM 47.8802 -121.7040 248° West 271 312 10,900  Level FlightAware ADS-B
Mon 05:35:43 PM 47.8776 -121.7110 240° Southwest 269 310 10,900  Level FlightAware ADS-B
Mon 05:35:45 PM 47.8776 -121.7111 239° Southwest 269 310 10,900  Level FlightAware ADS-B (CYVR)
Mon 05:35:48 PM 47.8736 -121.7200 233° Southwest 269 310 10,900  Level FlightAware ADS-B
Mon 05:35:52 PM 47.8708 -121.7240 228° Southwest 268 308 10,900  Level FlightAware ADS-B
Mon 05:35:54 PM 47.8717 -121.7230 225° Southwest 269 310 10,900  Level FlightAware ADS-B (CYVR)
Mon 05:36:19 PM 47.8457 -121.7590 223° Southwest 268 308 10,900  Level FlightAware ADS-B
Mon 05:36:24 PM 47.8415 -121.7647 222° Southwest 269 310 10,900  Level FlightAware ADS-B (CYVR)
Mon 05:36:28 PM 47.8379 -121.7690 219° Southwest 269 310 10,900 -750 Level FlightAware ADS-B
Mon 05:36:32 PM 47.8332 -121.7740 214° Southwest 269 310 10,800 -750 Descending FlightAware ADS-B
Mon 05:36:36 PM 47.8293 -121.7770 208° Southwest 268 308 10,800 -667 Level FlightAware ADS-B
Mon 05:36:41 PM 47.8239 -121.7810 202° Southwest 268 308 10,700 -1,579 Descending FlightAware ADS-B
Mon 05:36:55 PM 47.8112 -121.7872 196° South 266 306 10,300 -1,615 Descending FlightAware ADS-B (CYVR)
Mon 05:37:07 PM 47.7933 -121.7950 195° South 263 303 10,000 -1,200 Descending FlightAware ADS-B
Mon 05:37:15 PM 47.7839 -121.7985 195° South 262 302 9,900 -1,200 Descending FlightAware ADS-B (CYVR)
Mon 05:37:22 PM 47.7748 -121.8020 195° South 262 302 9,700 -1,565 Descending FlightAware ADS-B
Mon 05:37:38 PM 47.7568 -121.8090 195° South 261 300 9,300 -1,448 Descending FlightAware ADS-B
Mon 05:37:51 PM 47.7419 -121.8150 195° South 260 299 9,000 -1,412 Descending FlightAware ADS-B
Mon 05:37:55 PM 47.7391 -121.8165 195° South 260 299 8,900 -1,600 Descending FlightAware ADS-B (CYVR)
Mon 05:38:06 PM 47.7248 -121.8220 195° South 258 297 8,600 -1,364 Descending FlightAware ADS-B
Mon 05:38:17 PM 47.7122 -121.8270 196° South 256 295 8,400 -1,500 Descending FlightAware ADS-B
Mon 05:38:22 PM 47.7064 -121.8300 200° South 255 293 8,200 -1,333 Descending FlightAware ADS-B
Mon 05:38:26 PM 47.7018 -121.8330 202° Southwest 254 292 8,200 -1,385 Level FlightAware ADS-B
Mon 05:38:35 PM 47.6924 -121.8390 205° Southwest 252 290 7,900 -1,714 Descending FlightAware ADS-B
Mon 05:38:47 PM 47.6796 -121.8480 206° Southwest 252 290 7,600 -1,636 Descending FlightAware ADS-B
Mon 05:38:57 PM 47.6685 -121.8560 207° Southwest 254 292 7,300 -1,615 Descending FlightAware ADS-B
Mon 05:39:13 PM 47.6523 -121.8680 207° Southwest 255 293 6,900 -1,355 Descending FlightAware ADS-B
Mon 05:39:28 PM 47.6363 -121.8800 206° Southwest 254 292 6,600 -1,333 Descending FlightAware ADS-B
Mon 05:39:40 PM 47.6239 -121.8890 207° Southwest 253 291 6,300 -1,333 Descending FlightAware ADS-B
Mon 05:39:55 PM 47.6084 -121.9010 206° Southwest 251 289 6,000 -1,200 Descending FlightAware ADS-B
Mon 05:40:10 PM 47.5925 -121.9120 206° Southwest 250 288 5,700 -1,400 Descending FlightAware ADS-B
Mon 05:40:25 PM 47.5770 -121.9240 206° Southwest 249 287 5,300 -1,440 Descending FlightAware ADS-B
Mon 05:40:35 PM 47.5663 -121.9320 207° Southwest 248 285 5,100 -1,440 Descending FlightAware ADS-B
Mon 05:40:50 PM 47.5516 -121.9430 207° Southwest 250 288 4,700 -1,600 Descending FlightAware ADS-B
Mon 05:41:05 PM 47.5355 -121.9550 207° Southwest 254 292 4,300 -1,286 Descending FlightAware ADS-B
Mon 05:41:18 PM 47.5216 -121.9660 207° Southwest 259 298 4,100 -414 Descending FlightAware ADS-B
Mon 05:41:34 PM 47.5055 -121.9780 207° Southwest 258 297 4,100  Level FlightAware ADS-B
Mon 05:41:48 PM 47.4906 -121.9890 207° Southwest 260 299 4,100  Level FlightAware ADS-B
Mon 05:42:01 PM 47.4767 -122.0000 208° Southwest 263 303 4,100  Level FlightAware ADS-B
Mon 05:42:14 PM 47.4618 -122.0120 209° Southwest 264 304 4,100  Level FlightAware ADS-B
Mon 05:42:18 PM 47.4586 -122.0150 211° Southwest 263 303 4,100  Level FlightAware ADS-B
Mon 05:42:21 PM 47.4552 -122.0180 215° Southwest 262 302 4,100  Level FlightAware ADS-B
Mon 05:42:24 PM 47.4524 -122.0210 220° Southwest 261 300 4,100  Level FlightAware ADS-B
Mon 05:42:27 PM 47.4498 -122.0250 226° Southwest 260 299 4,100  Level FlightAware ADS-B
Mon 05:42:31 PM 47.4468 -122.0310 233° Southwest 258 297 4,100 -750 Level FlightAware ADS-B
Mon 05:42:35 PM 47.4445 -122.0360 240° Southwest 256 295 4,000 -1,714 Descending FlightAware ADS-B
Mon 05:42:38 PM 47.4427 -122.0410 243° Southwest 254 292 3,900 -2,571 Descending FlightAware ADS-B
Mon 05:42:42 PM 47.4407 -122.0470 245° Southwest 253 291 3,700 -3,158 Descending FlightAware ADS-B
Mon 05:42:57 PM 47.4339 -122.0710 248° West 256 295 2,900 -2,308 Descending FlightAware ADS-B
Mon 05:43:08 PM 47.4291 -122.0890 247° West 247 284 2,700 -1,143 Descending FlightAware ADS-B
Mon 05:43:18 PM 47.4248 -122.1040 247° West 233 268 2,500 -720 Descending FlightAware ADS-B
Mon 05:43:33 PM 47.4188 -122.1250 248° West 215 247 2,400 -316 Descending FlightAware ADS-B
Mon 05:43:37 PM 47.4176 -122.1300 251° West 210 242 2,400  Level FlightAware ADS-B
Mon 05:43:41 PM 47.4166 -122.1360 256° West 206 237 2,400  Level FlightAware ADS-B
Mon 05:43:46 PM 47.4158 -122.1430 263° West 201 231 2,400 -667 Level FlightAware ADS-B
Mon 05:43:50 PM 47.4157 -122.1480 269° West 198 228 2,300 -667 Descending FlightAware ADS-B
Mon 05:43:55 PM 47.4159 -122.1550 275° West 193 222 2,300  Level FlightAware ADS-B
Mon 05:43:59 PM 47.4164 -122.1590 279° West 188 216 2,300 -750 Level FlightAware ADS-B
Mon 05:44:03 PM 47.4171 -122.1650 283° West 183 211 2,200 -857 Descending FlightAware ADS-B
Mon 05:44:06 PM 47.4178 -122.1680 285° West 179 206 2,200  Level FlightAware ADS-B
Mon 05:44:17 PM 47.4202 -122.1800 286° West 167 192 2,200 353 Level FlightAware ADS-B
Mon 05:44:23 PM 47.4215 -122.1870 287° West 164 189 2,300 667 Climbing FlightAware ADS-B
Mon 05:44:26 PM 47.4224 -122.1910 291° West 164 189 2,300  Level FlightAware ADS-B
Mon 05:44:29 PM 47.4233 -122.1940 294° West 165 190 2,300  Level FlightAware ADS-B
Mon 05:44:32 PM 47.4244 -122.1970 298° West 166 191 2,300  Level FlightAware ADS-B
Mon 05:44:36 PM 47.4256 -122.2000 302° West 166 191 2,300  Level FlightAware ADS-B
Mon 05:44:39 PM 47.4269 -122.2030 305° West 166 191 2,300 -1,000 Level FlightAware ADS-B
Mon 05:44:42 PM 47.4284 -122.2060 308° West 164 189 2,200 -2,000 Descending FlightAware ADS-B
Mon 05:44:45 PM 47.4300 -122.2080 311° West 164 189 2,100 -1,500 Descending FlightAware ADS-B
Mon 05:44:50 PM 47.4324 -122.2120 314° West 164 189 2,000 -1,500 Descending FlightAware ADS-B
Mon 05:44:53 PM 47.4341 -122.2150 316° Northwest 165 190 1,900 -1,091 Descending FlightAware ADS-B
Mon 05:45:01 PM 47.4390 -122.2210 320° Northwest 164 189 1,800 -947 Descending FlightAware ADS-B
Mon 05:45:12 PM 47.4452 -122.2290 318° Northwest 162 186 1,600 -750 Descending FlightAware ADS-B
Mon 05:45:17 PM 47.4477 -122.2320 319° Northwest 162 186 1,600  Level FlightAware ADS-B
Mon 05:45:20 PM 47.4498 -122.2350 323° Northwest 159 183 1,600 -857 Level FlightAware ADS-B
Mon 05:45:24 PM 47.4518 -122.2370 326° Northwest 159 183 1,500 -857 Descending FlightAware ADS-B
Mon 05:45:27 PM 47.4537 -122.2390 328° Northwest 158 182 1,500 -667 Level FlightAware ADS-B
Mon 05:45:33 PM 47.4575 -122.2420 331° Northwest 158 182 1,400 -667 Descending FlightAware ADS-B
Mon 05:45:45 PM 47.4650 -122.2480 332° Northwest 153 176 1,300 -889 Descending FlightAware ADS-B
Mon 05:46:00 PM 47.4743 -122.2560 331° Northwest 145 167 1,000 -857 Descending FlightAware ADS-B
Mon 05:46:20 PM 47.4856 -122.2650 330° Northwest 144 166 800 -568 Descending FlightAware ADS-B
Mon 05:47:14 PM 47.5092 -122.2861 330° Northwest 137 158 300 -563 Descending Seattle Center
Mon 05:47:24 PM 47.5161 -122.2906 337° Northwest 141 162 200 -600 Descending Seattle Center

Login

Don't have an account? Register now (free) for customized features, flight alerts, and more!